Time;durP1;ratioP1;P1;durP2;ratioP2;P2;SDS_P1;SDS_P2;PMS_P1;PMS_P2;Temp;Humidity;BMP_temperature;BMP_pressure;BME280_temperature;BME280_humidity;BME280_pressure;Samples;Min_cycle;Max_cycle;Signal;HPM_P1;HPM_P2
2023/01/28 00:00:38;;;;;;;4.28;2.63;;;18.10;34.90;;;;;;5130128;27;45192;-71
2023/01/28 00:03:05;;;;;;;3.65;2.38;;;18.10;34.90;;;;;;5130346;27;45149;-71
2023/01/28 00:05:33;;;;;;;2.35;2.00;;;18.10;34.90;;;;;;5130023;27;45472;-71
2023/01/28 00:08:00;;;;;;;2.83;2.55;;;18.10;34.90;;;;;;5129954;27;45318;-71
2023/01/28 00:10:27;;;;;;;2.80;2.50;;;18.10;34.90;;;;;;5129977;27;45179;-71
2023/01/28 00:12:54;;;;;;;2.85;2.35;;;18.10;34.90;;;;;;5130460;27;45118;-71
2023/01/28 00:15:21;;;;;;;2.53;2.30;;;18.10;34.80;;;;;;5129947;27;46420;-71
2023/01/28 00:17:47;;;;;;;4.25;2.70;;;18.10;34.80;;;;;;5130062;27;45307;-71
2023/01/28 00:20:14;;;;;;;3.10;2.53;;;18.10;34.80;;;;;;5129763;27;45280;-71
2023/01/28 00:22:46;;;;;;;2.63;2.40;;;18.10;34.80;;;;;;5130195;27;45345;-70
2023/01/28 00:25:13;;;;;;;4.13;2.53;;;18.20;34.80;;;;;;5129699;27;46703;-71
2023/01/28 00:27:40;;;;;;;3.33;2.45;;;18.20;34.80;;;;;;5129924;27;45315;-71
2023/01/28 00:30:08;;;;;;;3.20;2.70;;;18.20;34.80;;;;;;5129939;27;45193;-71
2023/01/28 00:32:35;;;;;;;2.45;2.22;;;18.20;34.70;;;;;;5130149;27;45344;-71
2023/01/28 00:35:02;;;;;;;2.97;2.72;;;18.20;34.70;;;;;;5129612;27;45323;-71
2023/01/28 00:37:29;;;;;;;2.67;2.30;;;18.20;34.60;;;;;;5129658;27;45343;-71
2023/01/28 00:39:57;;;;;;;2.70;2.33;;;18.20;34.70;;;;;;5129379;27;45443;-71
2023/01/28 00:42:24;;;;;;;2.90;2.60;;;18.20;34.70;;;;;;5129628;27;45348;-71
2023/01/28 00:44:50;;;;;;;2.67;2.42;;;18.20;34.60;;;;;;5129479;27;46545;-71
2023/01/28 00:47:17;;;;;;;2.88;2.60;;;18.20;34.70;;;;;;5129571;27;45273;-71
2023/01/28 00:49:44;;;;;;;3.55;2.63;;;18.20;34.70;;;;;;5129391;27;45268;-71
2023/01/28 00:52:11;;;;;;;3.53;2.35;;;18.20;34.70;;;;;;5129577;27;45298;-71
2023/01/28 00:54:38;;;;;;;2.58;2.38;;;18.20;34.70;;;;;;5129202;27;47964;-71
2023/01/28 00:57:06;;;;;;;2.47;2.28;;;18.20;34.70;;;;;;5129384;27;45263;-71
2023/01/28 00:59:33;;;;;;;4.15;2.60;;;18.20;35.30;;;;;;5129446;27;45301;-71
2023/01/28 01:02:11;;;;;;;2.60;2.28;;;18.20;34.70;;;;;;5129434;27;45445;-71
2023/01/28 01:04:37;;;;;;;2.92;2.50;;;18.20;34.60;;;;;;5129057;27;46604;-71
2023/01/28 01:07:04;;;;;;;3.67;2.60;;;18.20;34.70;;;;;;5129117;27;45134;-71
2023/01/28 01:09:31;;;;;;;2.92;2.63;;;18.10;34.60;;;;;;5128766;27;45337;-71
2023/01/28 01:11:58;;;;;;;3.17;2.38;;;18.20;34.70;;;;;;5129398;27;45267;-71
2023/01/28 01:14:26;;;;;;;2.95;2.65;;;18.20;34.70;;;;;;5129122;27;47546;-71
2023/01/28 01:16:53;;;;;;;2.45;2.25;;;18.10;34.60;;;;;;5128898;27;45272;-71
2023/01/28 01:19:20;;;;;;;3.00;2.60;;;18.10;34.60;;;;;;5128971;27;45196;-71
2023/01/28 01:21:49;;;;;;;3.30;2.53;;;18.10;34.70;;;;;;5129592;27;45422;-71
2023/01/28 01:24:16;;;;;;;3.90;3.05;;;18.10;34.70;;;;;;5128773;27;46655;-71
2023/01/28 01:26:43;;;;;;;3.35;2.38;;;18.10;34.70;;;;;;5128943;27;45166;-71
2023/01/28 01:29:09;;;;;;;3.08;2.53;;;18.10;34.70;;;;;;5128727;27;45229;-71
2023/01/28 01:31:38;;;;;;;2.72;2.50;;;18.10;34.70;;;;;;5128290;27;45457;-71
2023/01/28 01:34:04;;;;;;;3.63;2.17;;;18.10;34.70;;;;;;5128639;27;46429;-71
2023/01/28 01:36:31;;;;;;;2.90;2.60;;;18.10;34.80;;;;;;5128680;27;45301;-71
2023/01/28 01:38:58;;;;;;;3.20;2.30;;;18.10;34.70;;;;;;5128644;27;45187;-71
2023/01/28 01:41:27;;;;;;;2.88;2.30;;;18.10;34.70;;;;;;5128943;27;45161;-71
2023/01/28 01:43:55;;;;;;;3.00;2.70;;;18.10;34.70;;;;;;5128444;27;46466;-72
2023/01/28 01:46:24;;;;;;;3.00;2.42;;;18.20;34.70;;;;;;5128545;27;45299;-71
2023/01/28 01:48:53;;;;;;;2.58;2.33;;;18.20;34.70;;;;;;5128609;27;45167;-71
2023/01/28 01:51:21;;;;;;;2.50;2.20;;;18.20;34.70;;;;;;5129015;27;45351;-71
2023/01/28 01:53:51;;;;;;;3.28;2.30;;;18.10;34.70;;;;;;5128340;27;45284;-71
2023/01/28 01:56:19;;;;;;;2.78;2.00;;;18.10;34.70;;;;;;5128486;27;45160;-71
2023/01/28 01:58:47;;;;;;;3.05;2.30;;;18.10;34.70;;;;;;5128457;27;45293;-71
2023/01/28 02:01:14;;;;;;;2.97;2.33;;;18.20;34.70;;;;;;5128870;27;45387;-70
2023/01/28 02:03:43;;;;;;;2.10;2.00;;;18.20;34.60;;;;;;5128228;27;45212;-71
2023/01/28 02:06:12;;;;;;;2.95;2.20;;;18.20;34.60;;;;;;5128413;27;45305;-70
2023/01/28 02:08:38;;;;;;;2.25;2.05;;;18.10;34.60;;;;;;5125778;27;45088;-71
2023/01/28 02:11:06;;;;;;;2.47;2.28;;;18.20;34.60;;;;;;5128592;27;45114;-71
2023/01/28 02:13:39;;;;;;;2.58;2.17;;;18.20;34.60;;;;;;5127964;27;46443;-71
2023/01/28 02:16:06;;;;;;;2.97;2.40;;;18.20;34.60;;;;;;5128000;27;45154;-71
2023/01/28 02:18:33;;;;;;;3.47;2.03;;;18.20;34.60;;;;;;5127923;27;45366;-71
2023/01/28 02:21:51;;;;;;;2.72;2.10;;;18.10;34.60;;;;;;5128533;27;45371;-71
2023/01/28 02:24:35;;;;;;;2.47;2.20;;;18.10;34.60;;;;;;5127754;27;46373;-71
2023/01/28 02:27:17;;;;;;;2.47;2.25;;;18.10;34.90;;;;;;5124597;27;45228;-71
2023/01/28 02:29:48;;;;;;;1.90;1.80;;;18.10;34.60;;;;;;5128149;27;45307;-71
2023/01/28 02:32:17;;;;;;;3.28;2.40;;;18.10;34.70;;;;;;5128386;27;45126;-71
2023/01/28 02:34:45;;;;;;;2.45;2.25;;;18.10;34.70;;;;;;5127873;27;46401;-71
2023/01/28 02:37:14;;;;;;;3.60;2.20;;;18.10;34.70;;;;;;5127984;27;45347;-70
2023/01/28 02:39:44;;;;;;;3.08;2.13;;;18.10;34.70;;;;;;5127727;27;45153;-71
2023/01/28 02:42:13;;;;;;;2.70;2.15;;;18.10;34.70;;;;;;5127883;27;45292;-71
2023/01/28 02:44:40;;;;;;;2.38;2.15;;;18.10;34.70;;;;;;5126296;27;46376;-71
2023/01/28 02:49:55;;;;;;;2.10;1.80;;;18.10;34.70;;;;;;5124889;27;45275;-71
2023/01/28 02:55:12;;;;;;;2.40;2.20;;;18.10;34.70;;;;;;5126240;27;46045;-71
2023/01/28 02:57:43;;;;;;;2.92;2.20;;;18.10;34.80;;;;;;5127147;27;45281;-71
2023/01/28 03:00:11;;;;;;;2.47;2.10;;;18.10;35.40;;;;;;5127133;27;45248;-70
2023/01/28 03:02:41;;;;;;;2.45;2.17;;;18.10;34.80;;;;;;5127687;27;45318;-71
2023/01/28 03:05:11;;;;;;;2.13;1.90;;;18.10;34.70;;;;;;5127182;27;46414;-71
2023/01/28 03:07:38;;;;;;;1.80;1.70;;;18.10;34.70;;;;;;5127210;27;45284;-70
2023/01/28 03:10:06;;;;;;;2.25;2.05;;;18.10;34.70;;;;;;5126844;27;45299;-70
2023/01/28 03:37:22;;;;;;;2.42;2.22;;;18.10;34.60;;;;;;5127406;27;45788;-71
2023/01/28 03:39:49;;;;;;;2.95;2.20;;;18.10;34.60;;;;;;5126777;27;45380;-70
2023/01/28 03:42:17;;;;;;;2.33;2.13;;;18.10;34.70;;;;;;5127435;27;45256;-70
2023/01/28 03:44:53;;;;;;;2.13;1.90;;;18.10;34.60;;;;;;5127321;27;45185;-70
2023/01/28 03:47:20;;;;;;;2.55;1.90;;;18.10;34.70;;;;;;5126786;27;45184;-70
2023/01/28 03:49:49;;;;;;;2.28;1.92;;;18.10;34.70;;;;;;5124396;27;45188;-72
2023/01/28 03:52:17;;;;;;;2.05;1.80;;;18.10;34.70;;;;;;5126954;27;45424;-72
2023/01/28 03:54:46;;;;;;;2.20;2.00;;;18.10;34.70;;;;;;5128086;27;45550;-71
2023/01/28 03:57:13;;;;;;;2.33;2.10;;;18.10;34.80;;;;;;5130370;27;46652;-72
2023/01/28 03:59:41;;;;;;;2.05;1.83;;;18.10;34.80;;;;;;5130249;27;45330;-72
2023/01/28 04:02:09;;;;;;;2.40;2.20;;;18.10;34.70;;;;;;5130585;27;45435;-70
2023/01/28 04:04:37;;;;;;;2.13;1.92;;;18.20;34.80;;;;;;5130639;27;45268;-72
2023/01/28 04:07:07;;;;;;;2.42;1.98;;;18.10;34.70;;;;;;5130229;27;46398;-72
2023/01/28 04:09:34;;;;;;;1.90;1.80;;;18.10;34.70;;;;;;5130026;27;45338;-72
2023/01/28 04:12:01;;;;;;;2.45;2.25;;;18.10;35.40;;;;;;5130328;27;45287;-72
2023/01/28 04:14:28;;;;;;;2.20;1.90;;;18.20;34.80;;;;;;5130527;27;45450;-71
2023/01/28 04:16:54;;;;;;;2.10;2.00;;;18.20;34.80;;;;;;5129957;27;46724;-72
2023/01/28 04:19:21;;;;;;;2.72;2.50;;;18.20;34.80;;;;;;5129964;27;45325;-71
2023/01/28 04:21:48;;;;;;;2.00;1.80;;;18.10;34.70;;;;;;5130244;27;45274;-71
2023/01/28 04:24:16;;;;;;;2.38;2.17;;;18.10;34.70;;;;;;5130436;27;45172;-72
2023/01/28 04:26:43;;;;;;;2.75;2.25;;;18.20;34.80;;;;;;5129828;27;46636;-71
2023/01/28 04:29:10;;;;;;;2.00;1.80;;;18.20;34.70;;;;;;5127123;27;45460;-71
2023/01/28 04:31:37;;;;;;;2.38;1.75;;;18.20;34.60;;;;;;5130104;27;45233;-72
2023/01/28 04:34:04;;;;;;;2.47;2.10;;;18.20;34.60;;;;;;5130433;27;45280;-72
2023/01/28 04:36:30;;;;;;;2.40;2.20;;;18.20;34.60;;;;;;5129712;27;45192;-72
2023/01/28 04:38:57;;;;;;;1.92;1.80;;;18.20;34.60;;;;;;5129234;27;45132;-71
2023/01/28 04:41:25;;;;;;;2.15;1.95;;;18.20;34.60;;;;;;5129998;27;45310;-71
2023/01/28 04:43:52;;;;;;;2.55;2.20;;;18.20;34.60;;;;;;5130325;27;45367;-72
2023/01/28 04:46:19;;;;;;;2.17;2.00;;;18.20;34.60;;;;;;5129687;27;45279;-72
2023/01/28 04:48:46;;;;;;;2.22;2.03;;;18.10;34.60;;;;;;5129700;27;45180;-72
2023/01/28 04:51:13;;;;;;;2.17;1.98;;;18.10;34.70;;;;;;5129820;27;45191;-72
2023/01/28 04:53:39;;;;;;;2.22;1.80;;;18.10;34.70;;;;;;5129791;27;45310;-72
2023/01/28 04:56:06;;;;;;;2.38;2.17;;;18.10;34.70;;;;;;5129529;27;46651;-71
2023/01/28 04:58:35;;;;;;;2.47;2.10;;;18.20;34.70;;;;;;5129609;27;45385;-72
2023/01/28 05:01:01;;;;;;;2.35;2.00;;;18.10;34.70;;;;;;5129750;27;45180;-71
2023/01/28 05:03:28;;;;;;;2.08;1.90;;;18.20;34.80;;;;;;5130073;27;45407;-71
2023/01/28 05:05:55;;;;;;;2.85;2.13;;;18.20;34.80;;;;;;5128283;27;46330;-71
2023/01/28 05:08:22;;;;;;;2.72;2.03;;;18.20;34.80;;;;;;5128972;27;45320;-71
2023/01/28 05:10:49;;;;;;;2.28;2.03;;;18.20;34.70;;;;;;5129326;27;45228;-71
2023/01/28 05:13:15;;;;;;;1.80;1.70;;;18.20;34.70;;;;;;5129611;27;45176;-71
2023/01/28 05:15:44;;;;;;;2.15;1.75;;;18.20;34.80;;;;;;5129206;27;45277;-71
2023/01/28 05:18:10;;;;;;;3.15;1.90;;;18.20;34.80;;;;;;5129306;27;45335;-71
2023/01/28 05:20:37;;;;;;;3.33;2.20;;;18.20;34.80;;;;;;5128838;27;45275;-72
2023/01/28 05:23:04;;;;;;;3.20;2.35;;;18.20;34.80;;;;;;5129213;27;45458;-71
2023/01/28 05:25:31;;;;;;;2.95;2.20;;;18.20;34.70;;;;;;5129010;27;45663;-71
2023/01/28 05:27:58;;;;;;;2.10;2.00;;;18.10;34.70;;;;;;5129222;27;45223;-71
2023/01/28 05:30:25;;;;;;;2.75;2.10;;;18.10;34.70;;;;;;5129071;27;45285;-71
2023/01/28 05:32:56;;;;;;;2.42;1.95;;;18.10;34.70;;;;;;5129298;27;45282;-72
2023/01/28 05:35:23;;;;;;;2.13;1.90;;;18.10;34.70;;;;;;5128918;27;46720;-71
2023/01/28 05:37:50;;;;;;;1.98;1.85;;;18.10;34.60;;;;;;5128981;27;45285;-71
2023/01/28 05:40:17;;;;;;;2.70;1.90;;;18.10;34.60;;;;;;5128943;27;45303;-71
2023/01/28 05:42:44;;;;;;;2.15;1.95;;;18.20;34.70;;;;;;5129155;27;45349;-71
2023/01/28 05:45:11;;;;;;;1.83;1.73;;;18.10;34.60;;;;;;5128466;27;45566;-71
2023/01/28 05:47:38;;;;;;;2.30;2.10;;;18.20;34.60;;;;;;5128407;27;45134;-71
2023/01/28 05:50:07;;;;;;;1.70;1.60;;;18.20;34.60;;;;;;5128652;27;45398;-71
2023/01/28 05:52:34;;;;;;;1.98;1.85;;;18.20;34.50;;;;;;5128666;27;45286;-71
2023/01/28 05:55:01;;;;;;;1.95;1.75;;;18.20;34.50;;;;;;5128153;27;46442;-71
2023/01/28 05:57:28;;;;;;;1.95;1.75;;;18.30;34.50;;;;;;5128294;27;45244;-72
2023/01/28 05:59:55;;;;;;;2.08;1.80;;;18.30;34.50;;;;;;5128511;27;45420;-72
2023/01/28 06:02:22;;;;;;;2.17;1.85;;;18.20;34.50;;;;;;5128334;27;45374;-72
2023/01/28 06:04:49;;;;;;;2.15;1.90;;;18.20;34.50;;;;;;5127950;27;47337;-72
2023/01/28 06:07:19;;;;;;;1.98;1.80;;;18.20;34.50;;;;;;5128171;27;45183;-71
2023/01/28 06:09:46;;;;;;;2.30;2.17;;;18.20;34.50;;;;;;5127815;27;45409;-72
2023/01/28 06:12:13;;;;;;;2.35;2.08;;;18.20;34.50;;;;;;5128350;27;45288;-71
2023/01/28 06:14:40;;;;;;;1.88;1.77;;;18.20;34.50;;;;;;5127938;27;46669;-71
2023/01/28 06:17:06;;;;;;;3.03;1.65;;;18.20;34.50;;;;;;5127452;27;45210;-71
2023/01/28 06:19:33;;;;;;;2.15;1.95;;;18.20;34.50;;;;;;5127954;27;45313;-71
2023/01/28 06:22:00;;;;;;;2.00;1.90;;;18.20;34.50;;;;;;5128231;27;45319;-71
2023/01/28 06:24:28;;;;;;;1.83;1.73;;;18.20;34.60;;;;;;5127713;27;46687;-71
2023/01/28 06:26:55;;;;;;;1.92;1.60;;;18.20;34.60;;;;;;5127708;27;45169;-71
2023/01/28 06:29:22;;;;;;;2.10;1.80;;;18.20;34.60;;;;;;5127757;27;45313;-71
2023/01/28 06:31:49;;;;;;;1.70;1.60;;;18.20;34.60;;;;;;5128232;27;45187;-71
2023/01/28 06:34:16;;;;;;;1.80;1.50;;;18.20;34.60;;;;;;5127842;27;45306;-71
2023/01/28 06:36:43;;;;;;;1.77;1.67;;;18.20;34.60;;;;;;5127851;27;45326;-71
2023/01/28 06:39:10;;;;;;;3.20;2.00;;;18.20;34.60;;;;;;5127708;27;45301;-71
2023/01/28 06:41:38;;;;;;;1.92;1.83;;;18.20;35.20;;;;;;5127987;27;45419;-71
2023/01/28 06:44:05;;;;;;;2.08;1.83;;;18.20;35.20;;;;;;5127621;27;46822;-71
2023/01/28 06:46:32;;;;;;;2.05;1.85;;;18.20;34.60;;;;;;5127414;27;45299;-72
2023/01/28 06:48:59;;;;;;;1.65;1.52;;;18.20;34.60;;;;;;5127343;27;45335;-71
2023/01/28 06:51:26;;;;;;;2.08;1.80;;;18.20;34.60;;;;;;5127790;27;45200;-72
2023/01/28 06:53:53;;;;;;;1.70;1.60;;;18.20;34.50;;;;;;5127669;27;47634;-71
2023/01/28 06:56:19;;;;;;;2.05;1.90;;;18.20;34.60;;;;;;5127599;27;45215;-71
2023/01/28 06:58:48;;;;;;;2.10;1.85;;;18.20;34.60;;;;;;5127546;27;45314;-71
2023/01/28 07:01:14;;;;;;;2.15;1.95;;;18.10;34.50;;;;;;5127805;27;45335;-71
2023/01/28 07:03:41;;;;;;;1.60;1.50;;;18.10;34.60;;;;;;5124715;27;45169;-71
2023/01/28 07:06:08;;;;;;;2.30;1.80;;;18.10;34.60;;;;;;5127211;27;45280;-71
2023/01/28 07:08:36;;;;;;;2.13;1.80;;;18.10;34.60;;;;;;5127170;27;45199;-71
2023/01/28 07:11:03;;;;;;;3.10;1.90;;;18.10;34.50;;;;;;5127571;27;45303;-72
2023/01/28 07:13:30;;;;;;;1.50;1.40;;;18.20;34.60;;;;;;5127101;27;45372;-71
2023/01/28 07:15:58;;;;;;;1.75;1.60;;;18.20;34.60;;;;;;5127232;27;45329;-72
2023/01/28 07:18:25;;;;;;;2.15;1.98;;;18.20;34.60;;;;;;5127311;27;45192;-71
2023/01/28 07:20:52;;;;;;;1.77;1.67;;;18.20;34.50;;;;;;5127673;27;45479;-72
2023/01/28 07:23:18;;;;;;;1.73;1.63;;;18.30;35.20;;;;;;5127391;27;46405;-71
2023/01/28 07:25:45;;;;;;;1.70;1.60;;;18.30;34.60;;;;;;5127236;27;45228;-72
2023/01/28 07:28:12;;;;;;;1.60;1.50;;;18.20;34.50;;;;;;5127320;27;45150;-72
2023/01/28 07:30:39;;;;;;;1.60;1.50;;;18.30;34.60;;;;;;5130108;27;45632;-71
2023/01/28 07:33:07;;;;;;;1.50;1.40;;;18.30;34.60;;;;;;5130343;27;46333;-72
2023/01/28 07:35:34;;;;;;;1.67;1.48;;;18.30;34.60;;;;;;5130929;27;45352;-72
2023/01/28 07:38:01;;;;;;;1.70;1.60;;;18.30;34.50;;;;;;5130874;27;45278;-71
2023/01/28 07:40:28;;;;;;;3.00;1.70;;;18.30;34.50;;;;;;5130839;27;45399;-72
2023/01/28 07:42:55;;;;;;;2.40;1.48;;;18.30;34.50;;;;;;5130405;27;46378;-71
2023/01/28 07:45:22;;;;;;;1.92;1.77;;;18.30;34.50;;;;;;5130545;27;45370;-71
2023/01/28 07:47:54;;;;;;;2.50;2.20;;;18.30;34.50;;;;;;5130540;27;45254;-72
2023/01/28 07:50:22;;;;;;;2.47;1.70;;;18.30;33.90;;;;;;5130739;27;45314;-72
2023/01/28 07:52:49;;;;;;;2.88;1.95;;;18.20;34.20;;;;;;5130536;27;45310;-72
2023/01/28 07:55:16;;;;;;;2.67;1.70;;;18.20;34.80;;;;;;5130941;27;45304;-72
2023/01/28 07:57:50;;;;;;;1.88;1.77;;;18.20;34.70;;;;;;5130338;27;45218;-72
2023/01/28 08:00:18;;;;;;;3.03;1.85;;;18.20;35.10;;;;;;5128001;27;45171;-72
2023/01/28 08:02:46;;;;;;;4.35;1.88;;;18.30;35.60;;;;;;5130476;27;47831;-73
2023/01/28 08:05:15;;;;;;;4.82;2.30;;;18.20;35.30;;;;;;5130843;27;45263;-72
2023/01/28 08:07:44;;;;;;;8.38;2.20;;;18.20;35.60;;;;;;5130763;27;45263;-71
2023/01/28 08:10:11;;;;;;;9.77;2.03;;;18.20;36.20;;;;;;5129917;27;45445;-72
2023/01/28 08:12:38;;;;;;;10.95;2.92;;;18.20;35.90;;;;;;5129869;27;46673;-72
2023/01/28 08:15:06;;;;;;;4.65;2.40;;;18.20;34.10;;;;;;5130014;27;45280;-71
2023/01/28 08:17:33;;;;;;;6.00;2.60;;;18.20;34.30;;;;;;5130112;27;45291;-71
2023/01/28 08:20:00;;;;;;;3.95;2.40;;;18.20;34.40;;;;;;5130015;27;45423;-72
2023/01/28 08:22:27;;;;;;;4.55;2.55;;;18.20;34.50;;;;;;5129562;27;46702;-72
2023/01/28 08:24:55;;;;;;;4.78;2.50;;;18.20;35.00;;;;;;5129691;27;45372;-71
2023/01/28 08:27:22;;;;;;;9.57;2.20;;;18.30;35.10;;;;;;5129782;27;45248;-71
2023/01/28 08:29:49;;;;;;;6.05;2.35;;;18.30;35.40;;;;;;5129787;27;45400;-71
2023/01/28 08:32:16;;;;;;;5.68;2.42;;;18.40;35.40;;;;;;5121969;27;45405;-71
2023/01/28 08:34:42;;;;;;;6.10;2.13;;;18.50;35.50;;;;;;5111743;27;45398;-71
2023/01/28 08:37:09;;;;;;;5.63;2.60;;;18.50;35.50;;;;;;5108686;27;45429;-71
2023/01/28 08:39:36;;;;;;;4.90;2.08;;;18.60;35.70;;;;;;5120013;27;45276;-71
2023/01/28 08:42:05;;;;;;;6.97;2.63;;;18.60;35.60;;;;;;5129040;27;46751;-71
2023/01/28 08:44:31;;;;;;;6.20;2.35;;;18.70;35.90;;;;;;5129283;27;45253;-71
2023/01/28 08:46:58;;;;;;;7.72;2.55;;;18.70;36.20;;;;;;5129501;27;45279;-72
2023/01/28 08:49:25;;;;;;;15.70;2.75;;;18.70;36.30;;;;;;5129572;27;45387;-71
2023/01/28 08:51:52;;;;;;;11.05;2.80;;;18.70;36.10;;;;;;5129701;27;46510;-72
2023/01/28 08:54:19;;;;;;;10.18;2.40;;;18.70;36.40;;;;;;5129236;27;45189;-72
2023/01/28 08:56:47;;;;;;;11.63;2.45;;;18.70;36.20;;;;;;5129598;27;45172;-72
2023/01/28 08:59:15;;;;;;;5.60;2.13;;;18.70;36.30;;;;;;5129461;27;45383;-71
2023/01/28 09:01:42;;;;;;;13.57;3.22;;;18.60;36.40;;;;;;5129132;27;45291;-71
2023/01/28 09:04:09;;;;;;;8.43;2.70;;;18.60;36.50;;;;;;5129077;27;45248;-71
2023/01/28 09:06:36;;;;;;;10.35;2.97;;;18.40;33.60;;;;;;5128949;27;45272;-72
2023/01/28 09:09:03;;;;;;;9.00;3.25;;;18.30;32.60;;;;;;5129016;27;45488;-71
2023/01/28 09:11:30;;;;;;;3.55;1.92;;;18.10;33.80;;;;;;5128769;27;46390;-70
2023/01/28 09:13:57;;;;;;;5.15;2.17;;;18.00;33.30;;;;;;5128856;27;45266;-70
2023/01/28 09:16:25;;;;;;;5.78;2.33;;;17.90;33.40;;;;;;5128829;27;45133;-71
2023/01/28 09:18:52;;;;;;;2.83;2.00;;;17.80;33.50;;;;;;5129252;27;45737;-72
2023/01/28 09:21:19;;;;;;;3.17;2.40;;;17.80;33.30;;;;;;5128898;27;46598;-71
2023/01/28 09:23:46;;;;;;;11.80;2.38;;;17.70;33.60;;;;;;5128330;27;45353;-71
2023/01/28 09:26:13;;;;;;;7.93;2.35;;;17.70;34.60;;;;;;5126243;27;45174;-72
2023/01/28 09:28:40;;;;;;;7.50;2.47;;;17.70;34.60;;;;;;5129352;27;45334;-72
2023/01/28 09:31:08;;;;;;;7.05;2.03;;;17.70;35.10;;;;;;5128830;27;45518;-72
2023/01/28 09:33:36;;;;;;;8.48;2.40;;;17.80;35.50;;;;;;5124761;27;45588;-71
2023/01/28 09:36:04;;;;;;;9.80;2.40;;;17.70;35.70;;;;;;5117222;27;45128;-70
2023/01/28 09:38:31;;;;;;;7.68;2.10;;;17.70;35.60;;;;;;5109784;27;45329;-70
2023/01/28 09:40:58;;;;;;;7.07;2.50;;;17.70;36.00;;;;;;5127988;27;45312;-71
2023/01/28 09:43:42;;;;;;;15.57;2.78;;;17.70;36.40;;;;;;5114854;27;45439;-71
2023/01/28 09:46:11;;;;;;;6.28;2.17;;;17.70;36.70;;;;;;5121459;27;45242;-72
2023/01/28 09:48:41;;;;;;;7.43;2.13;;;17.70;36.90;;;;;;5107943;27;45525;-71
2023/01/28 09:51:09;;;;;;;12.35;2.08;;;17.70;36.90;;;;;;5120497;27;45465;-71
2023/01/28 09:53:39;;;;;;;4.22;1.92;;;17.60;37.20;;;;;;5124850;27;45361;-71
2023/01/28 09:56:07;;;;;;;7.35;2.85;;;17.60;37.40;;;;;;5128320;27;45194;-70
2023/01/28 09:58:34;;;;;;;10.15;2.42;;;17.60;37.60;;;;;;5124330;27;45359;-69
2023/01/28 10:01:04;;;;;;;9.80;2.20;;;17.60;37.80;;;;;;5107316;27;46387;-70
2023/01/28 10:03:42;;;;;;;8.93;2.25;;;17.50;37.70;;;;;;5107405;27;45168;-73
2023/01/28 10:06:15;;;;;;;4.35;2.20;;;17.50;37.60;;;;;;5107748;27;45317;-71
2023/01/28 10:09:14;;;;;;;12.02;2.17;;;17.50;37.80;;;;;;5107528;27;45438;-71
2023/01/28 10:11:48;;;;;;;6.32;2.08;;;17.40;37.70;;;;;;5107144;27;46624;-71
2023/01/28 10:14:19;;;;;;;9.65;2.10;;;17.40;37.80;;;;;;5107788;27;45337;-70
2023/01/28 10:16:48;;;;;;;7.95;2.05;;;17.40;37.90;;;;;;5118613;27;45207;-73
2023/01/28 10:19:19;;;;;;;3.15;2.50;;;17.30;38.20;;;;;;5107728;27;45494;-72
2023/01/28 10:21:47;;;;;;;8.13;1.70;;;17.30;38.30;;;;;;5107186;27;45434;-72
2023/01/28 10:24:17;;;;;;;9.23;1.90;;;17.30;38.30;;;;;;5122568;27;45263;-72
2023/01/28 10:26:44;;;;;;;7.63;2.08;;;17.30;37.90;;;;;;5128040;27;45181;-74
2023/01/28 10:29:13;;;;;;;8.25;2.00;;;17.20;37.80;;;;;;5128389;27;45192;-72
2023/01/28 10:31:42;;;;;;;8.05;2.10;;;17.20;37.90;;;;;;5127916;27;46796;-71
2023/01/28 10:34:10;;;;;;;4.10;1.60;;;17.20;38.10;;;;;;5127492;27;45234;-71
2023/01/28 10:36:38;;;;;;;5.82;1.70;;;17.20;38.20;;;;;;5127998;27;45251;-72
2023/01/28 10:39:05;;;;;;;5.20;1.63;;;17.20;38.30;;;;;;5121430;27;45495;-70
2023/01/28 10:41:32;;;;;;;12.65;2.08;;;17.20;38.30;;;;;;5114429;27;46402;-71
2023/01/28 10:43:59;;;;;;;5.68;2.25;;;17.20;38.10;;;;;;5122062;27;45430;-71
2023/01/28 10:46:28;;;;;;;7.13;1.83;;;17.20;38.10;;;;;;5121995;27;45200;-71
2023/01/28 10:48:57;;;;;;;6.25;1.88;;;17.20;37.20;;;;;;5126149;27;45418;-71
2023/01/28 10:51:31;;;;;;;5.47;1.77;;;17.10;35.60;;;;;;5108113;27;47395;-71
2023/01/28 10:53:59;;;;;;;11.55;1.70;;;17.10;35.60;;;;;;5108019;27;45201;-70
2023/01/28 10:56:27;;;;;;;4.03;1.60;;;17.10;36.30;;;;;;5118010;27;45738;-71
2023/01/28 10:58:58;;;;;;;3.03;1.17;;;17.10;36.90;;;;;;5107566;27;45305;-72
2023/01/28 11:01:25;;;;;;;9.80;1.67;;;17.10;37.30;;;;;;5116430;27;46221;-72
2023/01/28 11:03:54;;;;;;;6.10;2.50;;;17.00;37.80;;;;;;5126504;27;45261;-72
2023/01/28 11:06:25;;;;;;;6.32;1.27;;;17.10;37.90;;;;;;5127757;27;45310;-72
2023/01/28 11:08:52;;;;;;;3.17;1.13;;;17.10;37.90;;;;;;5121048;27;45495;-73
2023/01/28 11:11:24;;;;;;;2.47;1.40;;;17.30;38.10;;;;;;5130293;27;46382;-72
2023/01/28 11:13:52;;;;;;;7.50;1.20;;;17.40;38.10;;;;;;5125736;27;45258;-71
2023/01/28 11:16:19;;;;;;;4.20;1.50;;;17.40;38.10;;;;;;5127345;27;45497;-72
2023/01/28 11:18:48;;;;;;;3.60;1.27;;;17.40;37.90;;;;;;5131331;27;45442;-72
2023/01/28 11:21:16;;;;;;;3.78;1.73;;;17.50;38.00;;;;;;5121691;27;46572;-73
2023/01/28 11:23:49;;;;;;;5.72;2.03;;;17.50;35.80;;;;;;5122108;27;45367;-72
2023/01/28 11:26:17;;;;;;;1.95;1.70;;;17.60;35.00;;;;;;5121086;27;45261;-72
2023/01/28 11:28:45;;;;;;;3.17;1.95;;;17.70;34.10;;;;;;5110807;27;45320;-72
2023/01/28 11:31:15;;;;;;;4.78;2.10;;;17.70;33.50;;;;;;5117434;27;45248;-71
2023/01/28 11:33:44;;;;;;;2.72;2.05;;;17.80;33.40;;;;;;5121591;27;45492;-72
2023/01/28 11:36:14;;;;;;;2.97;2.20;;;17.90;33.70;;;;;;5110312;27;45376;-72
2023/01/28 11:38:48;;;;;;;3.53;1.90;;;17.80;33.60;;;;;;5125132;27;45427;-72
2023/01/28 11:41:15;;;;;;;4.88;2.00;;;17.90;33.40;;;;;;5115202;27;45296;-71
2023/01/28 11:43:44;;;;;;;3.05;1.83;;;17.80;31.50;;;;;;5125463;27;45518;-72
2023/01/28 11:46:34;;;;;;;1.85;1.70;;;17.70;32.70;;;;;;5127154;27;45413;-71
2023/01/28 11:49:04;;;;;;;1.80;1.70;;;17.70;33.50;;;;;;5126666;27;45182;-71
2023/01/28 11:51:35;;;;;;;1.60;1.50;;;17.60;32.50;;;;;;5127490;27;46425;-71
2023/01/28 11:54:09;;;;;;;1.88;1.77;;;17.60;34.00;;;;;;5126282;27;45261;-71
2023/01/28 11:56:48;;;;;;;5.32;1.83;;;17.60;34.50;;;;;;5119168;27;45426;-71
2023/01/28 11:59:27;;;;;;;3.58;1.50;;;17.70;34.80;;;;;;5128631;27;45265;-71
2023/01/28 12:01:57;;;;;;;5.13;1.88;;;17.80;34.80;;;;;;5126066;27;45240;-72
2023/01/28 12:04:33;;;;;;;7.00;1.60;;;17.90;34.80;;;;;;5110894;27;45408;-71
2023/01/28 12:07:21;;;;;;;4.35;2.05;;;18.00;35.00;;;;;;5111684;27;46151;-71
2023/01/28 12:09:51;;;;;;;1.60;1.50;;;18.10;35.10;;;;;;5129656;27;45498;-70
2023/01/28 12:12:34;;;;;;;4.88;1.65;;;18.10;35.00;;;;;;5109834;27;46378;-70
2023/01/28 12:15:24;;;;;;;1.70;1.60;;;18.30;34.80;;;;;;5123408;27;45126;-70
2023/01/28 12:18:00;;;;;;;5.80;1.83;;;18.30;34.60;;;;;;5114669;27;45255;-70
2023/01/28 12:20:30;;;;;;;3.47;1.80;;;18.40;34.70;;;;;;5121809;27;45395;-70
2023/01/28 12:23:14;;;;;;;1.80;1.60;;;18.40;34.70;;;;;;5115569;27;47677;-70
2023/01/28 12:25:51;;;;;;;1.70;1.50;;;18.30;34.50;;;;;;5116993;27;45301;-70
2023/01/28 12:28:23;;;;;;;4.00;1.70;;;18.30;34.50;;;;;;5109199;27;45165;-70
2023/01/28 12:31:08;;;;;;;2.00;1.50;;;18.30;34.50;;;;;;5113310;27;45291;-71
2023/01/28 12:33:48;;;;;;;3.22;1.70;;;18.20;34.10;;;;;;5121408;27;46400;-70
2023/01/28 12:36:25;;;;;;;2.60;1.77;;;18.20;34.50;;;;;;5117055;27;45302;-70
2023/01/28 12:38:56;;;;;;;7.07;2.53;;;18.10;34.50;;;;;;5108457;27;45238;-70
2023/01/28 12:41:25;;;;;;;9.25;2.63;;;18.10;34.50;;;;;;5121115;27;45447;-69
2023/01/28 12:43:56;;;;;;;9.48;2.40;;;18.00;34.60;;;;;;5125598;27;45565;-70
2023/01/28 12:46:33;;;;;;;9.95;2.45;;;18.00;34.90;;;;;;5122892;27;45363;-70
2023/01/28 12:49:05;;;;;;;6.53;2.28;;;17.90;35.10;;;;;;5120439;27;45453;-70
2023/01/28 12:51:34;;;;;;;6.00;2.63;;;17.80;35.20;;;;;;5111776;27;45290;-72
2023/01/28 12:54:02;;;;;;;4.75;1.92;;;17.80;35.50;;;;;;5117562;27;46889;-70
2023/01/28 12:56:32;;;;;;;8.40;2.63;;;17.80;35.60;;;;;;5113655;27;45331;-70
2023/01/28 12:59:00;;;;;;;4.53;2.20;;;17.80;35.90;;;;;;5120114;27;45240;-71
2023/01/28 13:01:29;;;;;;;6.43;2.45;;;17.70;36.00;;;;;;5124204;27;45509;-71
2023/01/28 13:03:58;;;;;;;5.97;2.42;;;17.60;36.10;;;;;;5125818;27;46362;-71
2023/01/28 13:06:28;;;;;;;7.03;2.35;;;17.60;36.30;;;;;;5128345;27;45313;-71
2023/01/28 13:08:58;;;;;;;9.00;2.53;;;17.60;36.30;;;;;;5129298;27;45203;-69
2023/01/28 13:11:25;;;;;;;7.75;2.58;;;17.50;36.70;;;;;;5128335;27;45396;-72
2023/01/28 13:13:52;;;;;;;8.40;2.92;;;17.50;36.90;;;;;;5128198;27;46442;-72
2023/01/28 13:16:19;;;;;;;6.88;2.60;;;17.50;37.10;;;;;;5127912;27;45299;-70
2023/01/28 13:18:46;;;;;;;13.98;2.80;;;17.50;37.10;;;;;;5126556;27;45505;-71
2023/01/28 13:21:28;;;;;;;14.32;2.80;;;17.60;37.20;;;;;;5125944;27;45404;-71
2023/01/28 13:24:06;;;;;;;11.60;2.80;;;17.60;37.50;;;;;;5125068;27;45607;-70